Hlavní strana
METAR-TAF:

METAR-TAF

Letiště :

Tallahassee Regional Airport

Tallahassee, Florida, Spojené státy americké

zeměpisná šířka: 30-23-35N, zeměpisná délka: 084-21-12W, výška: 24 m

Aktuální stav počasí

Zpráva byla vytvořena před 7 minutami, v 07:53 UTC
Východoseverovýchodní vítr 7 kt
Teplota 14°C
Vlhkost vzduchu 77%
Tlak 1022 hPa
Viditelnost: 16.1 km
Skoro jasno ve výšce 8000 ft

METAR: KTLH 080753Z AUTO 07007KT 10SM FEW080 14/10 A3019 RMK AO2 SLP223 T01390100

Čas: 03:00 (08:00 UTC)

Předpověď počasí

Zpráva byla vytvořena před 2 hodinami a 40 minutami, v 05:20 UTC
Předpověď platná od 08 v 06 UTC do 09 v 06 UTC
Východní vítr 10 kt
Viditelnost: 10 km
Oblačno až skoro zataženo ve výšce 3500 ft
Od 08 v 1000 UTC
Východní vítr 10 kt
Viditelnost: 10 km
Oblačno až skoro zataženo ve výšce 2000 ft
Od 08 v 1800 UTC
Východojihovýchodní vítr 9 kt
Viditelnost: 10 km
Oblačno až skoro zataženo ve výšce 3500 ft

TAF: KTLH 080520Z 0806/0906 09010KT P6SM BKN035 FM081000 09010KT P6SM BKN020 FM081800 12009KT P6SM BKN035

Stav a předpovědi počasí z více než 4 000 letišť (zprávy METAR a TAF).

Červené a žluté tečky na mapě představují dostupné meteorologické stanice.

Když kurzor umístíte na tečku, zobrazí se název stanice.

Pak kliknutím zobrazíte stav a předpověď počasí.

Chcete-li změnit mapu, kliknutím na zelené tlačítko se znaménkem +mapu přiblížíte, kliknutím na zelené tlačítko se znaménkem – mapu oddálíte a kliknutím na zelené šipky přejdete na sousední mapy.


METAR-TAF: